Aérodrome :
LOGIN :

S'inscrire | Disclaimer

   EN    FR    IT 

 










Légende :    VFR   VFR Marginal   IFR   IFR Intensif   IFR Très Intensif
Visi : 
Plafond : 
>= 8 km
>= 3000ft
5 à 8 km
1000 à 3000 ft
1500m à 5 km
500 à 1000 ft
800 à 1500m
200 à 500 ft
< 800m
< 200 ft
Symboles :   Orages  Brouillard  Fortes neiges  Fortes précipitations  Vent > 20 kt
SIGMETs :   Divers  Orages  Givrage  Turbulence  Onde Orograph.  Cendres Volcan.






- Altitude de l'aérodrome : 909 ft
- Code IATA : KSF


EDVK - Kassel Calden

DERNIER METAR :
  • 201620Z 36004KT 280V050 CAVOK 20/11 Q1010

METARs EXPIRÉS :
  • 201550Z 35004KT 280V050 9999 SCT033 20/11 Q1010
  • 201520Z 03004KT 350V070 9999 SCT047 20/12 Q1010
  • 201450Z 34003KT 270V040 9999 FEW044TCU 19/12 Q1011
  • 201420Z 03004KT 350V080 9999 FEW041TCU 19/12 Q1011
  • 201350Z 34004KT 260V040 9999 FEW034 SCT043TCU 20/12 Q1011
  • 201320Z VRB02KT 9999 SCT036TCU 19/12 Q1011
  • 201250Z VRB03KT 9999 SCT032TCU 18/11 Q1011
  • 201220Z VRB02KT 9999 SCT038 19/12 Q1011
  • 201150Z 29004KT 9999 -SHRA SCT035 17/13 Q1011

TAF TAF EDVK
Valide du 20 à 15h jusqu'au 21 à 00h UTC


201400Z 2015/2024 07004KT 9999 BKN035
PROB30
TEMPO 2015/2018 3500 TSRA BKN012 BKN020CB



MET'MAP, la Météo Aéronautique d'un coup d'oeil ! - Copyright ORBIFLY Décembre 2007 - Disclaimer

ORBIFLY MET'MAP TEAM :

Programmation & Développement : Alexandra Zaïnal
Sur une idée originale de : Baudouin d'Aumeries
Soutien technique & logistique : Manuel Goepfert
Assistance : Marc-Olivier Méhu




SOURCES & CREDITS :

   NOAA